createdAt,value
2016-05-27T00:00:09.325Z,14.59
2016-05-27T00:01:09.342Z,14.48
2016-05-27T00:02:09.361Z,14.58
2016-05-27T00:03:09.379Z,14.55
2016-05-27T00:04:09.836Z,14.6
2016-05-27T00:05:09.431Z,14.62
2016-05-27T00:06:09.434Z,14.51
2016-05-27T00:07:09.469Z,14.55
2016-05-27T00:08:09.174Z,14.63
2016-05-27T00:09:09.489Z,14.63
2016-05-27T00:10:09.508Z,14.58
2016-05-27T00:11:09.510Z,14.59
2016-05-27T00:12:09.544Z,14.53
2016-05-27T00:13:09.562Z,14.45
2016-05-27T00:14:09.581Z,14.62
2016-05-27T00:15:09.458Z,14.58
2016-05-27T00:16:09.617Z,14.37
2016-05-27T00:17:09.651Z,14.47
2016-05-27T00:18:09.669Z,14.47
2016-05-27T00:19:09.547Z,14.44
2016-05-27T00:20:09.707Z,14.4
2016-05-27T00:21:09.568Z,14.48
2016-05-27T00:22:09.742Z,14.45
2016-05-27T00:23:09.604Z,14.45
2016-05-27T00:24:09.780Z,14.37
2016-05-27T00:25:09.485Z,14.45
2016-05-27T00:26:09.816Z,14.3
2016-05-27T00:27:09.662Z,14.44
2016-05-27T00:28:09.837Z,14.44
2016-05-27T00:29:09.870Z,14.47
2016-05-27T00:30:09.889Z,14.47
2016-05-27T00:31:09.923Z,14.54
2016-05-27T00:32:09.926Z,14.43
2016-05-27T00:33:09.944Z,14.48
2016-05-27T00:34:09.806Z,14.5
2016-05-27T00:35:09.839Z,14.53
2016-05-27T00:36:09.983Z,14.47
2016-05-27T00:37:10.017Z,14.4
2016-05-27T00:38:10.052Z,14.48
2016-05-27T00:39:10.054Z,14.53
2016-05-27T00:40:10.072Z,14.44
2016-05-27T00:41:10.091Z,14.5
2016-05-27T00:42:10.155Z,14.47
2016-05-27T00:43:10.127Z,14.55
2016-05-27T00:44:10.177Z,14.58
2016-05-27T00:45:10.180Z,14.58
2016-05-27T00:46:10.182Z,14.58
2016-05-27T00:47:10.216Z,14.58
2016-05-27T00:48:10.218Z,14.55
2016-05-27T00:49:10.253Z,14.54
2016-05-27T00:50:10.271Z,14.53
2016-05-27T00:51:10.290Z,14.47
2016-05-27T00:52:10.292Z,14.51
2016-05-27T00:53:10.310Z,14.62
2016-05-27T00:54:10.188Z,14.5
2016-05-27T00:55:10.347Z,14.51
2016-05-27T00:56:10.396Z,14.41
2016-05-27T00:57:10.399Z,14.58
2016-05-27T00:58:10.417Z,14.47
2016-05-27T00:59:10.452Z,14.54
2016-05-27T01:00:10.470Z,14.58
2016-05-27T01:01:10.472Z,14.5
2016-05-27T01:02:10.492Z,14.58
2016-05-27T01:03:10.353Z,14.47
2016-05-27T01:04:10.372Z,14.54
2016-05-27T01:05:10.561Z,14.45
2016-05-27T01:06:10.580Z,14.58
2016-05-27T01:07:10.442Z,14.48
2016-05-27T01:08:10.616Z,14.44
2016-05-27T01:09:10.635Z,14.54
2016-05-27T01:10:10.652Z,14.5
2016-05-27T01:11:10.671Z,14.48
2016-05-27T01:12:10.689Z,14.59
2016-05-27T01:13:10.692Z,14.62
2016-05-27T01:14:10.711Z,14.59
2016-05-27T01:15:10.744Z,14.51
2016-05-27T01:16:10.763Z,14.59
2016-05-27T01:17:10.782Z,14.59
2016-05-27T01:18:10.628Z,14.58
2016-05-27T01:19:11.068Z,14.59
2016-05-27T01:20:10.836Z,14.55
2016-05-27T01:21:10.854Z,14.51
2016-05-27T01:22:10.874Z,14.45
2016-05-27T01:23:10.890Z,14.55
2016-05-27T01:24:10.768Z,14.53
2016-05-27T01:25:10.928Z,14.55
2016-05-27T01:26:10.946Z,14.41
2016-05-27T01:27:10.965Z,14.55
2016-05-27T01:28:10.983Z,14.59
2016-05-27T01:29:11.017Z,14.55
2016-05-27T01:30:11.051Z,14.59
2016-05-27T01:31:11.069Z,14.58
2016-05-27T01:32:11.150Z,14.55
2016-05-27T01:33:11.137Z,14.48
2016-05-27T01:34:11.515Z,14.54
2016-05-27T01:35:11.205Z,14.51
2016-05-27T01:36:11.191Z,14.47
2016-05-27T01:37:11.164Z,14.48
2016-05-27T01:38:11.181Z,14.4
2016-05-27T01:39:11.216Z,14.5
2016-05-27T01:40:11.186Z,14.41
2016-05-27T01:41:11.236Z,14.37
2016-05-27T01:42:11.114Z,14.41
2016-05-27T01:43:11.258Z,14.41
2016-05-27T01:44:11.291Z,14.33
2016-05-27T01:45:11.310Z,14.37
2016-05-27T01:46:11.219Z,14.51
2016-05-27T01:47:11.362Z,14.51
2016-05-27T01:48:11.380Z,14.53
2016-05-27T01:49:11.291Z,14.41
2016-05-27T01:50:11.423Z,14.47
2016-05-27T01:51:11.460Z,14.5
2016-05-27T01:52:11.498Z,14.37
2016-05-27T01:53:11.286Z,14.3
2016-05-27T01:54:11.571Z,14.41
2016-05-27T01:55:11.597Z,14.3
2016-05-27T01:56:11.622Z,14.25
2016-05-27T01:57:11.491Z,14.43
2016-05-27T01:58:11.673Z,14.36
2016-05-27T01:59:11.712Z,14.3
2016-05-27T02:00:11.718Z,14.3
2016-05-27T02:01:11.443Z,14.23
2016-05-27T02:02:11.775Z,14.29
2016-05-27T02:03:11.781Z,14.3
2016-05-27T02:04:12.114Z,14.25
2016-05-27T02:05:11.836Z,14.26
2016-05-27T02:06:11.684Z,14.17
2016-05-27T02:07:11.688Z,14.18
2016-05-27T02:08:11.879Z,14.3
2016-05-27T02:09:11.756Z,14.2
2016-05-27T02:10:11.932Z,14.18
2016-05-27T02:11:11.950Z,14.2
2016-05-27T02:12:11.969Z,14.22
2016-05-27T02:13:11.972Z,14.2
2016-05-27T02:14:12.005Z,14.2
2016-05-27T02:15:11.868Z,14.18
2016-05-27T02:16:12.043Z,14.17
2016-05-27T02:17:12.046Z,14.12
2016-05-27T02:18:12.080Z,14.15
2016-05-27T02:19:12.114Z,14.1
2016-05-27T02:20:12.116Z,14.07
2016-05-27T02:21:12.149Z,14.12
2016-05-27T02:22:12.152Z,14.11
2016-05-27T02:23:12.218Z,14.07
2016-05-27T02:24:12.221Z,14.04
2016-05-27T02:25:12.207Z,14
2016-05-27T02:26:12.226Z,13.95
2016-05-27T02:27:12.072Z,14
2016-05-27T02:28:12.247Z,13.97
2016-05-27T02:29:12.281Z,13.99
2016-05-27T02:30:12.331Z,13.95
2016-05-27T02:31:12.364Z,13.97
2016-05-27T02:32:12.179Z,14.03
2016-05-27T02:33:12.369Z,13.96
2016-05-27T02:34:12.748Z,14
2016-05-27T02:35:12.437Z,13.97
2016-05-27T02:36:12.425Z,13.86
2016-05-27T02:37:12.114Z,13.87
2016-05-27T02:38:12.478Z,13.89
2016-05-27T02:39:12.495Z,13.89
2016-05-27T02:40:12.388Z,13.96
2016-05-27T02:41:12.516Z,13.85
2016-05-27T02:42:12.566Z,13.85
2016-05-27T02:43:12.553Z,13.95
2016-05-27T02:44:12.556Z,13.86
2016-05-27T02:45:12.402Z,13.87
2016-05-27T02:46:12.498Z,13.86
2016-05-27T02:47:12.610Z,13.9
2016-05-27T02:48:12.629Z,13.87
2016-05-27T02:49:13.225Z,13.93
2016-05-27T02:50:12.510Z,13.97
2016-05-27T02:51:12.699Z,13.93
2016-05-27T02:52:12.718Z,13.92
2016-05-27T02:53:12.721Z,13.96
2016-05-27T02:54:12.754Z,13.87
2016-05-27T02:55:12.773Z,14
2016-05-27T02:56:12.776Z,14
2016-05-27T02:57:12.653Z,13.95
2016-05-27T02:58:12.812Z,13.95
2016-05-27T02:59:12.831Z,13.95
2016-05-27T03:00:12.834Z,13.97
2016-05-27T03:01:12.712Z,13.93
2016-05-27T03:02:12.885Z,13.93
2016-05-27T03:03:12.904Z,13.93
2016-05-27T03:04:12.937Z,13.87
2016-05-27T03:05:12.956Z,13.97
2016-05-27T03:06:12.959Z,13.97
2016-05-27T03:07:12.993Z,13.97
2016-05-27T03:08:13.026Z,13.97
2016-05-27T03:09:13.029Z,13.96
2016-05-27T03:10:13.032Z,14
2016-05-27T03:11:13.050Z,14.04
2016-05-27T03:12:13.100Z,14.04
2016-05-27T03:13:13.102Z,14
2016-05-27T03:14:12.965Z,14.04
2016-05-27T03:15:13.139Z,14.08
2016-05-27T03:16:13.142Z,14.11
2016-05-27T03:17:13.175Z,14.12
2016-05-27T03:18:13.194Z,14.15
2016-05-27T03:19:13.400Z,14.17
2016-05-27T03:20:13.231Z,14.17
2016-05-27T03:21:13.249Z,14.2
2016-05-27T03:22:13.268Z,14.2
2016-05-27T03:23:13.130Z,14.2
2016-05-27T03:24:13.304Z,14.25
2016-05-27T03:25:13.307Z,14.2
2016-05-27T03:26:13.324Z,14.18
2016-05-27T03:27:13.343Z,14.08
2016-05-27T03:28:13.377Z,14.17
2016-05-27T03:29:13.240Z,14.23
2016-05-27T03:30:13.414Z,14.22
2016-05-27T03:31:13.276Z,14.18
2016-05-27T03:32:13.482Z,14.26
2016-05-27T03:33:13.312Z,14.17
2016-05-27T03:34:13.346Z,14.23
2016-05-27T03:35:13.521Z,14.18
2016-05-27T03:36:13.523Z,14.25
2016-05-27T03:37:13.542Z,14.22
2016-05-27T03:38:13.576Z,14.12
2016-05-27T03:39:13.578Z,14.22
2016-05-27T03:40:13.612Z,14.14
2016-05-27T03:41:13.459Z,14.2
2016-05-27T03:42:13.478Z,14.3
2016-05-27T03:43:13.652Z,14.26
2016-05-27T03:44:13.530Z,14.29
2016-05-27T03:45:13.673Z,14.3
2016-05-27T03:46:13.707Z,14.32
2016-05-27T03:47:13.413Z,14.29
2016-05-27T03:48:13.744Z,14.29
2016-05-27T03:49:13.777Z,14.41
2016-05-27T03:50:13.624Z,14.32
2016-05-27T03:51:13.799Z,14.43
2016-05-27T03:52:13.832Z,14.37
2016-05-27T03:53:13.835Z,14.4
2016-05-27T03:54:13.697Z,14.41
2016-05-27T03:55:13.887Z,14.33
2016-05-27T03:56:13.905Z,14.33
2016-05-27T03:57:13.924Z,14.4
2016-05-27T03:58:13.785Z,14.44
2016-05-27T03:59:13.960Z,14.5
2016-05-27T04:00:13.948Z,14.41
2016-05-27T04:01:13.997Z,14.47
2016-05-27T04:02:14.000Z,14.45
2016-05-27T04:03:14.034Z,14.48
2016-05-27T04:04:14.068Z,14.48
2016-05-27T04:05:14.086Z,14.5
2016-05-27T04:06:13.948Z,14.53
2016-05-27T04:07:13.951Z,14.48
2016-05-27T04:08:14.156Z,14.51
2016-05-27T04:09:14.128Z,14.53
2016-05-27T04:10:14.162Z,14.43
2016-05-27T04:11:14.181Z,14.44
2016-05-27T04:12:14.214Z,14.53
2016-05-27T04:13:14.217Z,14.48
2016-05-27T04:14:14.219Z,14.45
2016-05-27T04:15:14.238Z,14.51
2016-05-27T04:16:14.288Z,14.55
2016-05-27T04:17:14.150Z,14.44
2016-05-27T04:18:14.324Z,14.59
2016-05-27T04:19:14.577Z,14.59
2016-05-27T04:20:14.361Z,14.55
2016-05-27T04:21:14.379Z,14.58
2016-05-27T04:22:14.241Z,14.59
2016-05-27T04:23:14.260Z,14.59
2016-05-27T04:24:14.465Z,14.68
2016-05-27T04:25:14.438Z,14.63
2016-05-27T04:26:14.455Z,14.66
2016-05-27T04:27:14.488Z,14.77
2016-05-27T04:28:14.335Z,14.6
2016-05-27T04:29:14.526Z,14.72
2016-05-27T04:30:14.543Z,14.78
2016-05-27T04:31:14.562Z,14.69
2016-05-27T04:32:14.581Z,14.78
2016-05-27T04:33:14.598Z,14.82
2016-05-27T04:34:14.476Z,14.86
2016-05-27T04:35:14.620Z,14.77
2016-05-27T04:36:14.637Z,14.82
2016-05-27T04:37:14.656Z,14.84
2016-05-27T04:38:14.534Z,14.85
2016-05-27T04:39:14.693Z,14.92
2016-05-27T04:40:14.727Z,14.86
2016-05-27T04:41:14.761Z,14.85
2016-05-27T04:42:14.764Z,14.86
2016-05-27T04:43:14.782Z,14.94
2016-05-27T04:44:14.800Z,15.04
2016-05-27T04:45:14.834Z,14.94
2016-05-27T04:46:14.681Z,14.99
2016-05-27T04:47:14.871Z,15
2016-05-27T04:48:14.874Z,15.04
2016-05-27T04:49:15.563Z,15.11
2016-05-27T04:50:14.925Z,15.24
2016-05-27T04:51:14.928Z,15.31
2016-05-27T04:52:14.947Z,15.33
2016-05-27T04:53:14.996Z,15.31
2016-05-27T04:54:14.983Z,15.29
2016-05-27T04:55:15.018Z,15.44
2016-05-27T04:56:15.035Z,15.43
2016-05-27T04:57:14.898Z,15.44
2016-05-27T04:58:15.088Z,15.46
2016-05-27T04:59:15.091Z,15.43
2016-05-27T05:00:15.109Z,15.43
2016-05-27T05:01:15.143Z,15.47
2016-05-27T05:02:14.973Z,15.54
2016-05-27T05:03:15.148Z,15.61
2016-05-27T05:04:15.338Z,15.59
2016-05-27T05:05:15.215Z,15.67
2016-05-27T05:06:15.234Z,15.7
2016-05-27T05:07:15.253Z,15.59
2016-05-27T05:08:15.271Z,15.75
2016-05-27T05:09:15.289Z,15.75
2016-05-27T05:10:15.308Z,15.76
2016-05-27T05:11:15.342Z,15.75
2016-05-27T05:12:15.345Z,15.77
2016-05-27T05:13:15.379Z,15.75
2016-05-27T05:14:15.381Z,15.8
2016-05-27T05:15:15.400Z,15.86
2016-05-27T05:16:15.417Z,15.82
2016-05-27T05:17:15.436Z,15.9
2016-05-27T05:18:15.455Z,15.88
2016-05-27T05:19:15.503Z,15.8
2016-05-27T05:20:15.506Z,15.92
2016-05-27T05:21:15.368Z,15.98
2016-05-27T05:22:15.386Z,15.88
2016-05-27T05:23:15.546Z,15.95
2016-05-27T05:24:15.564Z,15.95
2016-05-27T05:25:15.426Z,16.02
2016-05-27T05:26:15.460Z,15.9
2016-05-27T05:27:15.635Z,16.08
2016-05-27T05:28:15.653Z,16.05
2016-05-27T05:29:15.672Z,16.09
2016-05-27T05:30:15.704Z,16.13
2016-05-27T05:31:15.568Z,16.15
2016-05-27T05:32:15.743Z,16.16
2016-05-27T05:33:15.760Z,16.29
2016-05-27T05:34:15.966Z,16.28
2016-05-27T05:35:15.813Z,16.35
2016-05-27T05:36:15.643Z,16.39
2016-05-27T05:37:15.834Z,16.43
2016-05-27T05:38:15.852Z,16.43
2016-05-27T05:39:15.870Z,16.51
2016-05-27T05:40:15.873Z,16.57
2016-05-27T05:41:15.891Z,16.53
2016-05-27T05:42:15.941Z,16.58
2016-05-27T05:43:15.850Z,16.69
2016-05-27T05:44:15.961Z,16.68
2016-05-27T05:45:15.980Z,16.69
2016-05-27T05:46:15.998Z,16.76
2016-05-27T05:47:16.032Z,16.83
2016-05-27T05:48:16.050Z,16.9
2016-05-27T05:49:15.819Z,16.97
2016-05-27T05:50:16.072Z,17.08
2016-05-27T05:51:16.089Z,17.11
2016-05-27T05:52:16.124Z,17.16
2016-05-27T05:53:15.985Z,17.23
2016-05-27T05:54:16.177Z,17.29
2016-05-27T05:55:16.194Z,17.38
2016-05-27T05:56:16.228Z,17.38
2016-05-27T05:57:16.074Z,17.34
2016-05-27T05:58:16.249Z,17.39
2016-05-27T05:59:16.283Z,17.39
2016-05-27T06:00:16.302Z,17.34
2016-05-27T06:01:16.305Z,17.36
2016-05-27T06:02:16.182Z,17.38
2016-05-27T06:03:16.357Z,17.36
2016-05-27T06:04:16.218Z,17.41
2016-05-27T06:05:18.721Z,17.39
2016-05-27T06:06:16.412Z,17.41
2016-05-27T06:07:16.446Z,17.39
2016-05-27T06:08:16.448Z,17.39
2016-05-27T06:09:16.326Z,17.46
2016-05-27T06:10:16.485Z,17.42
2016-05-27T06:11:16.518Z,17.45
2016-05-27T06:12:16.536Z,17.44
2016-05-27T06:13:16.556Z,17.48
2016-05-27T06:14:16.573Z,17.54
2016-05-27T06:15:16.623Z,17.56
2016-05-27T06:16:16.485Z,17.51
2016-05-27T06:17:16.645Z,17.49
2016-05-27T06:18:16.678Z,17.51
2016-05-27T06:19:16.930Z,17.49
2016-05-27T06:20:16.684Z,17.46
2016-05-27T06:21:16.764Z,17.49
2016-05-27T06:22:16.752Z,17.48
2016-05-27T06:23:16.816Z,17.51
2016-05-27T06:24:16.788Z,17.56
2016-05-27T06:25:16.869Z,17.54
2016-05-27T06:26:16.871Z,17.59
2016-05-27T06:27:16.890Z,17.51
2016-05-27T06:28:16.549Z,17.49
2016-05-27T06:29:16.911Z,17.54
2016-05-27T06:30:16.929Z,17.52
2016-05-27T06:31:16.791Z,17.49
2016-05-27T06:32:16.950Z,17.46
2016-05-27T06:33:16.968Z,17.51
2016-05-27T06:34:17.034Z,17.56
2016-05-27T06:35:16.865Z,17.57
2016-05-27T06:36:17.054Z,17.49
2016-05-27T06:37:17.042Z,17.6
2016-05-27T06:38:17.076Z,17.63
2016-05-27T06:39:17.093Z,17.56
2016-05-27T06:40:17.129Z,17.56
2016-05-27T06:41:17.146Z,17.56
2016-05-27T06:42:17.164Z,17.6
2016-05-27T06:43:17.168Z,17.67
2016-05-27T06:44:17.029Z,17.63
2016-05-27T06:45:17.219Z,17.67
2016-05-27T06:46:17.081Z,17.67
2016-05-27T06:47:17.256Z,17.65
2016-05-27T06:48:17.259Z,17.71
2016-05-27T06:49:17.292Z,17.74
2016-05-27T06:50:17.311Z,17.79
2016-05-27T06:51:17.361Z,17.76
2016-05-27T06:52:17.222Z,17.72
2016-05-27T06:53:17.381Z,17.74
2016-05-27T06:54:21.306Z,17.7
2016-05-27T06:55:17.433Z,17.71
2016-05-27T06:56:17.297Z,17.71
2016-05-27T06:57:17.471Z,17.71
2016-05-27T06:58:17.489Z,17.67
2016-05-27T06:59:17.507Z,17.72
2016-05-27T07:00:17.524Z,17.83
2016-05-27T07:01:17.544Z,17.71
2016-05-27T07:02:17.594Z,17.76
2016-05-27T07:03:17.596Z,17.79
2016-05-27T07:04:17.864Z,17.78
2016-05-27T07:05:17.618Z,17.82
2016-05-27T07:06:17.651Z,17.85
2016-05-27T07:07:17.668Z,17.82
2016-05-27T07:08:17.688Z,17.85
2016-05-27T07:09:17.549Z,17.9
2016-05-27T07:10:17.724Z,17.87
2016-05-27T07:11:17.742Z,17.89
2016-05-27T07:12:17.761Z,17.94
2016-05-27T07:13:17.810Z,17.95
2016-05-27T07:14:17.812Z,17.9
2016-05-27T07:15:17.831Z,17.92
2016-05-27T07:16:17.850Z,17.98
2016-05-27T07:17:17.867Z,18.05
2016-05-27T07:18:17.903Z,18
2016-05-27T07:19:18.045Z,18.04
2016-05-27T07:20:17.939Z,18.18
2016-05-27T07:21:17.972Z,18.1
2016-05-27T07:22:18.007Z,18.16
2016-05-27T07:23:18.009Z,18.18
2016-05-27T07:24:18.043Z,18.28
2016-05-27T07:25:17.889Z,18.19
2016-05-27T07:26:18.049Z,18.23
2016-05-27T07:27:18.098Z,18.2
2016-05-27T07:28:18.116Z,18.2
2016-05-27T07:29:18.119Z,18.19
2016-05-27T07:30:18.153Z,18.23
2016-05-27T07:31:18.156Z,18.34
2016-05-27T07:32:18.174Z,18.4
2016-05-27T07:33:18.207Z,18.43
2016-05-27T07:34:23.899Z,18.41
2016-05-27T07:35:18.260Z,18.44
2016-05-27T07:36:18.294Z,18.49
2016-05-27T07:37:17.985Z,18.56
2016-05-27T07:38:18.315Z,18.52
2016-05-27T07:39:18.208Z,18.59
2016-05-27T07:40:18.368Z,18.62
2016-05-27T07:41:18.385Z,18.73
2016-05-27T07:42:18.404Z,18.75
2016-05-27T07:43:18.422Z,18.8
2016-05-27T07:44:18.441Z,18.8
2016-05-27T07:45:18.458Z,18.86
2016-05-27T07:46:18.478Z,18.95
2016-05-27T07:47:18.340Z,18.96
2016-05-27T07:48:18.514Z,18.95
2016-05-27T07:49:22.203Z,19.12
2016-05-27T07:50:18.567Z,19.16
2016-05-27T07:51:18.584Z,19.18
2016-05-27T07:52:18.618Z,19.15
2016-05-27T07:53:18.621Z,19.19
2016-05-27T07:54:18.655Z,19.16
2016-05-27T07:55:18.657Z,19.16
2016-05-27T07:56:18.691Z,19.16
2016-05-27T07:57:18.553Z,19.04
2016-05-27T07:58:18.728Z,19.12
2016-05-27T07:59:18.762Z,18.98
2016-05-27T08:00:18.828Z,19.14
2016-05-27T08:01:18.830Z,18.95
2016-05-27T08:02:18.676Z,19.11
2016-05-27T08:03:18.694Z,19
2016-05-27T08:04:19.151Z,19.07
2016-05-27T08:05:18.888Z,18.99
2016-05-27T08:06:18.968Z,19.08
2016-05-27T08:07:18.955Z,18.98
2016-05-27T08:08:19.020Z,18.99
2016-05-27T08:09:19.008Z,19.11
2016-05-27T08:10:19.042Z,19.07
2016-05-27T08:11:19.060Z,19.02
2016-05-27T08:12:19.062Z,19.12
2016-05-27T08:13:19.082Z,19.16
2016-05-27T08:14:19.115Z,19.3
2016-05-27T08:15:18.993Z,19.41
2016-05-27T08:16:19.151Z,19.37
2016-05-27T08:17:19.154Z,19.41
2016-05-27T08:18:19.173Z,19.47
2016-05-27T08:19:19.534Z,19.58
2016-05-27T08:20:19.100Z,19.67
2016-05-27T08:21:19.228Z,19.76
2016-05-27T08:22:19.105Z,19.85
2016-05-27T08:23:19.265Z,19.91
2016-05-27T08:24:19.158Z,19.96
2016-05-27T08:25:19.300Z,19.99
2016-05-27T08:26:19.350Z,20.06
2016-05-27T08:27:19.369Z,19.96
2016-05-27T08:28:19.403Z,19.91
2016-05-27T08:29:19.405Z,19.86
2016-05-27T08:30:19.424Z,19.89
2016-05-27T08:31:19.474Z,19.92
2016-05-27T08:32:19.476Z,20
2016-05-27T08:33:19.510Z,20.03
2016-05-27T08:34:19.372Z,20.04
2016-05-27T08:35:19.531Z,20.03
2016-05-27T08:36:19.237Z,20.13
2016-05-27T08:37:19.568Z,20.14
2016-05-27T08:38:19.601Z,20.25
2016-05-27T08:39:23.635Z,20.16
2016-05-27T08:40:19.638Z,20.29
2016-05-27T08:41:19.516Z,20.25
2016-05-27T08:42:19.706Z,20.18
2016-05-27T08:43:19.693Z,20.36
2016-05-27T08:44:19.712Z,20.37
2016-05-27T08:45:19.761Z,20.52
2016-05-27T08:46:19.779Z,20.62
2016-05-27T08:47:19.813Z,20.65
2016-05-27T08:48:19.831Z,20.75
2016-05-27T08:49:24.803Z,20.69
2016-05-27T08:50:20.259Z,20.74
2016-05-27T08:51:19.887Z,20.74
2016-05-27T08:52:19.921Z,20.82
2016-05-27T08:53:19.954Z,20.9
2016-05-27T08:54:19.973Z,21.03
2016-05-27T08:55:19.819Z,21.18
2016-05-27T08:56:20.009Z,21.33
2016-05-27T08:57:20.106Z,21.57
2016-05-27T08:58:20.124Z,21.64
2016-05-27T08:59:19.908Z,21.83
2016-05-27T09:00:20.113Z,21.89
2016-05-27T09:01:20.117Z,21.98
2016-05-27T09:02:20.135Z,22.08
2016-05-27T09:03:20.153Z,22.17
2016-05-27T09:04:20.406Z,22.36
2016-05-27T09:05:20.299Z,22.36
2016-05-27T09:06:20.224Z,22.38
2016-05-27T09:07:20.289Z,22.44
2016-05-27T09:08:20.119Z,22.44
2016-05-27T09:09:21.841Z,22.57
2016-05-27T09:10:20.329Z,22.65
2016-05-27T09:11:20.346Z,22.83
2016-05-27T09:12:20.240Z,22.91
2016-05-27T09:13:20.382Z,22.94
2016-05-27T09:14:20.402Z,22.9
2016-05-27T09:15:20.451Z,22.96
2016-05-27T09:16:20.578Z,22.98
2016-05-27T09:17:20.487Z,22.87
2016-05-27T09:18:20.491Z,22.94
2016-05-27T09:19:20.571Z,23.02
2016-05-27T09:20:20.401Z,23.1
2016-05-27T09:21:20.576Z,23.15
2016-05-27T09:22:20.594Z,23.09
2016-05-27T09:23:20.629Z,23.09
2016-05-27T09:24:20.632Z,23.1
2016-05-27T09:25:20.681Z,23.09
2016-05-27T09:26:20.684Z,23.08
2016-05-27T09:27:20.545Z,23.03
2016-05-27T09:28:20.736Z,23.09
2016-05-27T09:29:21.723Z,23.08
2016-05-27T09:30:20.803Z,23.08
2016-05-27T09:31:20.806Z,23.06
2016-05-27T09:32:20.841Z,23.08
2016-05-27T09:33:20.858Z,23.08
2016-05-27T09:34:23.830Z,23.1
2016-05-27T09:35:20.614Z,23.02
2016-05-27T09:36:21.039Z,23.02
2016-05-27T09:37:20.963Z,23.12
2016-05-27T09:38:20.966Z,23.15
2016-05-27T09:39:21.500Z,23.12
2016-05-27T09:40:21.002Z,23.15
2016-05-27T09:41:21.037Z,23.17
2016-05-27T09:42:21.055Z,23.21
2016-05-27T09:43:20.932Z,23.18
2016-05-27T09:44:21.107Z,23.21
2016-05-27T09:45:21.141Z,23.15
2016-05-27T09:46:21.206Z,23.27
2016-05-27T09:47:21.037Z,23.21
2016-05-27T09:48:21.290Z,23.27
2016-05-27T09:49:21.261Z,23.31
2016-05-27T09:50:21.123Z,23.46
2016-05-27T09:51:21.282Z,23.65
2016-05-27T09:52:21.394Z,23.68
2016-05-27T09:53:21.334Z,23.73
2016-05-27T09:54:21.353Z,23.78
2016-05-27T09:55:21.371Z,23.81
2016-05-27T09:56:21.405Z,23.84
2016-05-27T09:57:21.408Z,23.92
2016-05-27T09:58:21.441Z,23.86
2016-05-27T09:59:21.492Z,23.87
2016-05-27T10:00:21.478Z,23.88
2016-05-27T10:01:21.497Z,23.95
2016-05-27T10:02:21.530Z,23.93
2016-05-27T10:03:21.549Z,23.91
2016-05-27T10:04:22.488Z,23.92
2016-05-27T10:05:21.586Z,23.95
2016-05-27T10:06:24.651Z,23.84
2016-05-27T10:07:21.638Z,23.83
2016-05-27T10:08:21.687Z,23.8
2016-05-27T10:09:21.533Z,23.78
2016-05-27T10:10:21.707Z,23.84
2016-05-27T10:11:21.757Z,23.86
2016-05-27T10:12:21.621Z,23.95
2016-05-27T10:13:21.794Z,23.92
2016-05-27T10:14:21.813Z,23.92
2016-05-27T10:15:21.706Z,23.92
2016-05-27T10:16:21.709Z,23.93
2016-05-27T10:17:21.884Z,23.96
2016-05-27T10:18:21.918Z,23.91
2016-05-27T10:19:22.357Z,23.99
2016-05-27T10:20:22.360Z,24.01
2016-05-27T10:21:21.972Z,23.99
2016-05-27T10:22:22.006Z,23.98
2016-05-27T10:23:22.025Z,23.93
2016-05-27T10:24:22.059Z,24.01
2016-05-27T10:25:21.920Z,24.13
2016-05-27T10:26:22.111Z,24.13
2016-05-27T10:27:22.114Z,24.06
2016-05-27T10:28:22.147Z,24.1
2016-05-27T10:29:22.166Z,23.98
2016-05-27T10:30:21.919Z,23.93
2016-05-27T10:31:22.296Z,23.96
2016-05-27T10:32:22.267Z,23.93
2016-05-27T10:33:22.333Z,23.92
2016-05-27T10:34:22.507Z,24.06
2016-05-27T10:35:22.947Z,24.1
2016-05-27T10:36:22.419Z,24.17
2016-05-27T10:37:22.218Z,24.01
2016-05-27T10:38:22.441Z,23.96
2016-05-27T10:39:22.458Z,23.84
2016-05-27T10:40:22.429Z,23.92
2016-05-27T10:41:22.324Z,23.92
2016-05-27T10:42:24.904Z,24.01
2016-05-27T10:43:22.360Z,24.05
2016-05-27T10:44:22.519Z,24.14
2016-05-27T10:45:22.552Z,24.26
2016-05-27T10:46:22.415Z,24.24
2016-05-27T10:47:22.635Z,24.26
2016-05-27T10:48:22.467Z,24.23
2016-05-27T10:49:23.328Z,24.17
2016-05-27T10:50:23.175Z,24.14
2016-05-27T10:51:22.694Z,23.99
2016-05-27T10:52:22.571Z,23.93
2016-05-27T10:53:22.745Z,23.95
2016-05-27T10:54:22.779Z,23.95
2016-05-27T10:55:22.782Z,24.06
2016-05-27T10:56:22.701Z,24.02
2016-05-27T10:57:22.886Z,24.01
2016-05-27T10:58:22.946Z,24.02
2016-05-27T10:59:23.474Z,23.99
2016-05-27T11:00:23.065Z,23.91
2016-05-27T11:01:23.093Z,23.91
2016-05-27T11:02:22.964Z,23.98
2016-05-27T11:03:23.148Z,23.99
2016-05-27T11:04:23.628Z,24.03
2016-05-27T11:05:23.594Z,24.01
2016-05-27T11:06:23.240Z,24.16
2016-05-27T11:07:23.262Z,24.18
2016-05-27T11:08:23.284Z,24.01
2016-05-27T11:09:23.321Z,24.17
2016-05-27T11:10:23.594Z,24.1
2016-05-27T11:11:23.362Z,24.16
2016-05-27T11:12:23.397Z,24.1
2016-05-27T11:13:23.260Z,24.06
2016-05-27T11:14:23.296Z,24.16
2016-05-27T11:15:27.003Z,24.05
2016-05-27T11:16:23.491Z,24.05
2016-05-27T11:17:23.509Z,24.01
2016-05-27T11:18:23.558Z,23.93
2016-05-27T11:19:23.421Z,23.93
2016-05-27T11:20:25.596Z,24.02
2016-05-27T11:21:23.615Z,24.05
2016-05-27T11:22:23.680Z,24.16
2016-05-27T11:23:23.668Z,24.17
2016-05-27T11:24:23.733Z,24.3
2016-05-27T11:25:29.440Z,24.4
2016-05-27T11:26:23.771Z,24.65
2016-05-27T11:27:23.774Z,24.7
2016-05-27T11:28:23.619Z,24.66
2016-05-27T11:29:23.654Z,24.66
2016-05-27T11:30:27.968Z,24.69
2016-05-27T11:31:23.846Z,24.81
2016-05-27T11:32:23.880Z,24.85
2016-05-27T11:33:23.898Z,24.88
2016-05-27T11:34:23.808Z,25.11
2016-05-27T11:35:27.107Z,25.07
2016-05-27T11:36:23.859Z,25.06
2016-05-27T11:37:24.019Z,25.17
2016-05-27T11:38:24.021Z,25.13
2016-05-27T11:39:24.056Z,25.06
2016-05-27T11:40:25.934Z,25.13
2016-05-27T11:41:24.123Z,25.25
2016-05-27T11:42:24.126Z,25.31
2016-05-27T11:43:24.145Z,25.36
2016-05-27T11:44:24.178Z,25.44
2016-05-27T11:45:24.040Z,25.38
2016-05-27T11:46:24.215Z,25.33
2016-05-27T11:47:24.248Z,25.31
2016-05-27T11:48:24.283Z,25.33
2016-05-27T11:49:24.754Z,25.22
2016-05-27T11:50:32.053Z,25.21
2016-05-27T11:51:24.198Z,25.18
2016-05-27T11:52:24.403Z,25.07
2016-05-27T11:53:24.389Z,25.21
2016-05-27T11:54:24.252Z,25.32
2016-05-27T11:55:25.817Z,25.35
2016-05-27T11:56:24.476Z,25.4
2016-05-27T11:57:24.494Z,25.4
2016-05-27T11:58:24.513Z,25.53
2016-05-27T11:59:24.546Z,25.62
2016-05-27T12:00:26.941Z,25.55
2016-05-27T12:01:24.615Z,25.8
2016-05-27T12:02:24.789Z,25.83
2016-05-27T12:03:24.541Z,25.95
2016-05-27T12:04:25.123Z,25.91
2016-05-27T12:05:28.501Z,25.93
2016-05-27T12:06:24.597Z,25.87
2016-05-27T12:07:24.756Z,25.53
2016-05-27T12:08:24.790Z,25.35
2016-05-27T12:09:24.807Z,25.32
2016-05-27T12:10:27.827Z,25.38
2016-05-27T12:11:24.845Z,25.46
2016-05-27T12:12:24.723Z,25.65
2016-05-27T12:13:24.897Z,25.73
2016-05-27T12:14:24.962Z,25.7
2016-05-27T12:15:30.231Z,25.66
2016-05-27T12:16:24.951Z,25.68
2016-05-27T12:17:24.986Z,25.7
2016-05-27T12:18:25.035Z,25.8
2016-05-27T12:19:24.898Z,25.7
2016-05-27T12:20:25.259Z,25.69
2016-05-27T12:21:25.089Z,25.8
2016-05-27T12:22:25.125Z,25.95
2016-05-27T12:23:25.127Z,26.05
2016-05-27T12:24:25.192Z,26.07
2016-05-27T12:25:25.211Z,26.15
2016-05-27T12:26:25.213Z,26.23
2016-05-27T12:27:25.247Z,26.28
2016-05-27T12:28:25.265Z,26.43
2016-05-27T12:29:25.283Z,26.45
2016-05-27T12:30:25.318Z,26.47
2016-05-27T12:31:25.351Z,26.33
2016-05-27T12:32:25.041Z,26.18
2016-05-27T12:33:25.388Z,26.03
2016-05-27T12:34:25.672Z,25.87
2016-05-27T12:35:25.441Z,25.7
2016-05-27T12:36:25.474Z,25.55
2016-05-27T12:37:25.493Z,25.43
2016-05-27T12:38:25.527Z,25.41
2016-05-27T12:39:25.545Z,25.32
2016-05-27T12:40:25.407Z,25.31
2016-05-27T12:41:25.582Z,25.33
2016-05-27T12:42:25.459Z,25.23
2016-05-27T12:43:28.009Z,25.17
2016-05-27T12:44:25.651Z,25.01
2016-05-27T12:45:25.701Z,24.95
2016-05-27T12:46:25.704Z,24.84
2016-05-27T12:47:25.739Z,24.63
2016-05-27T12:48:25.757Z,24.54
2016-05-27T12:49:26.228Z,24.69
2016-05-27T12:50:25.809Z,24.76
2016-05-27T12:51:25.843Z,24.84
2016-05-27T12:52:25.892Z,24.91
2016-05-27T12:53:25.880Z,24.99
2016-05-27T12:54:26.100Z,25.03
2016-05-27T12:55:25.931Z,24.98
2016-05-27T12:56:25.950Z,24.92